createdAt,value
2023-04-06T00:01:54.869Z,100.00
2023-04-06T00:04:22.295Z,100.00
2023-04-06T00:06:49.790Z,100.00
2023-04-06T00:09:16.849Z,100.00
2023-04-06T00:11:44.072Z,100.00
2023-04-06T00:14:11.345Z,100.00
2023-04-06T00:16:38.672Z,100.00
2023-04-06T00:19:05.846Z,100.00
2023-04-06T00:21:33.460Z,100.00
2023-04-06T00:24:00.744Z,100.00
2023-04-06T00:26:28.193Z,100.00
2023-04-06T00:28:58.779Z,100.00
2023-04-06T00:31:26.586Z,100.00
2023-04-06T00:33:53.969Z,100.00
2023-04-06T00:36:21.431Z,100.00
2023-04-06T00:38:48.889Z,100.00
2023-04-06T00:41:16.346Z,100.00
2023-04-06T00:43:46.291Z,100.00
2023-04-06T00:46:13.673Z,100.00
2023-04-06T00:48:41.982Z,100.00
2023-04-06T00:51:09.098Z,100.00
2023-04-06T00:53:36.656Z,100.00
2023-04-06T00:56:05.173Z,100.00
2023-04-06T00:58:42.157Z,100.00
2023-04-06T01:01:10.308Z,100.00
2023-04-06T01:03:37.891Z,100.00
2023-04-06T01:06:05.963Z,100.00
2023-04-06T01:08:38.262Z,100.00
2023-04-06T01:11:19.444Z,100.00
2023-04-06T01:13:48.240Z,100.00
2023-04-06T01:16:24.509Z,100.00
2023-04-06T01:19:16.276Z,100.00
2023-04-06T01:21:47.454Z,100.00
2023-04-06T01:24:32.877Z,100.00
2023-04-06T01:27:07.066Z,100.00
2023-04-06T01:29:53.241Z,100.00
2023-04-06T01:32:38.595Z,100.00
2023-04-06T01:35:07.039Z,100.00
2023-04-06T01:37:38.118Z,100.00
2023-04-06T01:40:09.345Z,100.00
2023-04-06T01:42:45.263Z,100.00
2023-04-06T01:45:17.254Z,100.00
2023-04-06T01:47:45.941Z,100.00
2023-04-06T01:50:13.792Z,100.00
2023-04-06T01:52:45.846Z,100.00
2023-04-06T01:55:13.413Z,100.00
2023-04-06T01:58:00.717Z,100.00
2023-04-06T02:00:35.074Z,100.00
2023-04-06T02:03:03.030Z,100.00
2023-04-06T02:05:35.099Z,100.00
2023-04-06T02:08:02.705Z,100.00
2023-04-06T02:10:36.352Z,100.00
2023-04-06T02:13:12.254Z,100.00
2023-04-06T02:15:44.587Z,100.00
2023-04-06T02:18:12.243Z,100.00
2023-04-06T02:20:39.536Z,100.00
2023-04-06T02:23:06.791Z,100.00
2023-04-06T02:25:34.641Z,100.00
2023-04-06T02:28:02.002Z,100.00
2023-04-06T02:30:30.686Z,100.00
2023-04-06T02:32:59.200Z,100.00
2023-04-06T02:35:26.945Z,100.00
2023-04-06T02:37:55.944Z,100.00
2023-04-06T02:40:23.667Z,100.00
2023-04-06T02:42:50.980Z,100.00
2023-04-06T02:45:24.575Z,100.00
2023-04-06T02:47:51.617Z,100.00
2023-04-06T02:50:18.812Z,100.00
2023-04-06T02:52:55.015Z,100.00
2023-04-06T02:55:24.851Z,100.00
2023-04-06T02:57:52.505Z,100.00
2023-04-06T03:00:23.750Z,100.00
2023-04-06T03:02:51.376Z,100.00
2023-04-06T03:05:19.983Z,100.00
2023-04-06T03:07:48.498Z,100.00
2023-04-06T03:10:24.326Z,100.00
2023-04-06T03:12:51.424Z,100.00
2023-04-06T03:15:24.641Z,100.00
2023-04-06T03:18:00.125Z,100.00
2023-04-06T03:20:41.325Z,100.00
2023-04-06T03:23:11.508Z,100.00
2023-04-06T03:25:47.466Z,100.00
2023-04-06T03:28:22.670Z,100.00
2023-04-06T03:30:59.592Z,100.00
2023-04-06T03:33:45.593Z,100.00
2023-04-06T03:36:36.011Z,100.00
2023-04-06T03:39:06.729Z,100.00
2023-04-06T03:41:40.202Z,100.00
2023-04-06T03:44:21.942Z,100.00
2023-04-06T03:46:53.403Z,100.00
2023-04-06T03:49:22.536Z,100.00
2023-04-06T03:51:54.262Z,100.00
2023-04-06T03:54:47.489Z,100.00
2023-04-06T03:57:14.488Z,100.00
2023-04-06T03:59:46.689Z,100.00
2023-04-06T04:02:17.392Z,100.00
2023-04-06T04:04:45.544Z,100.00
2023-04-06T04:07:14.599Z,100.00
2023-04-06T04:09:44.977Z,100.00
2023-04-06T04:12:12.375Z,100.00
2023-04-06T04:14:42.317Z,100.00
2023-04-06T04:17:10.263Z,100.00
2023-04-06T04:19:38.550Z,100.00
2023-04-06T04:22:10.412Z,100.00
2023-04-06T04:24:41.144Z,100.00
2023-04-06T04:27:10.439Z,100.00
2023-04-06T04:29:40.690Z,100.00
2023-04-06T04:32:12.212Z,100.00
2023-04-06T04:34:42.407Z,100.00
2023-04-06T04:37:16.736Z,100.00
2023-04-06T04:39:55.544Z,100.00
2023-04-06T04:42:23.935Z,100.00
2023-04-06T04:44:54.501Z,100.00
2023-04-06T04:47:33.777Z,100.00
2023-04-06T04:50:01.823Z,100.00
2023-04-06T04:52:30.207Z,100.00
2023-04-06T04:55:12.139Z,100.00
2023-04-06T04:57:39.734Z,100.00
2023-04-06T05:00:08.392Z,100.00
2023-04-06T05:02:38.030Z,100.00
2023-04-06T05:05:19.574Z,100.00
2023-04-06T05:07:47.160Z,100.00
2023-04-06T05:10:25.741Z,100.00
2023-04-06T05:12:57.806Z,100.00
2023-04-06T05:15:27.138Z,100.00
2023-04-06T05:17:59.863Z,100.00
2023-04-06T05:20:32.740Z,100.00
2023-04-06T05:23:04.000Z,100.00
2023-04-06T05:25:31.891Z,100.00
2023-04-06T05:28:06.520Z,100.00
2023-04-06T05:30:39.471Z,100.00
2023-04-06T05:33:08.104Z,100.00
2023-04-06T05:35:53.850Z,100.00
2023-04-06T05:38:21.669Z,100.00
2023-04-06T05:40:50.035Z,100.00
2023-04-06T05:43:23.041Z,100.00
2023-04-06T05:45:55.134Z,100.00
2023-04-06T05:48:25.760Z,100.00
2023-04-06T05:50:53.652Z,100.00
2023-04-06T05:53:32.613Z,100.00
2023-04-06T05:56:06.137Z,100.00
2023-04-06T05:58:34.100Z,100.00
2023-04-06T06:01:02.798Z,100.00
2023-04-06T06:03:39.511Z,100.00
2023-04-06T06:06:08.050Z,99.83
2023-04-06T06:09:12.226Z,98.61
2023-04-06T06:11:47.855Z,99.16
2023-04-06T06:14:18.840Z,99.82
2023-04-06T06:16:48.043Z,99.88
2023-04-06T06:19:17.480Z,100.00
2023-04-06T06:21:50.063Z,100.00
2023-04-06T06:24:17.749Z,100.00
2023-04-06T06:26:46.337Z,100.00
2023-04-06T06:29:16.497Z,100.00
2023-04-06T06:31:45.593Z,100.00
2023-04-06T06:34:14.296Z,100.00
2023-04-06T06:36:46.403Z,100.00
2023-04-06T06:39:16.938Z,100.00
2023-04-06T06:41:45.787Z,100.00
2023-04-06T06:44:14.339Z,100.00
2023-04-06T06:46:42.177Z,100.00
2023-04-06T06:49:13.070Z,100.00
2023-04-06T06:51:41.222Z,100.00
2023-04-06T06:54:09.762Z,100.00
2023-04-06T06:56:39.765Z,99.48
2023-04-06T06:59:08.643Z,98.66
2023-04-06T07:01:38.467Z,98.69
2023-04-06T07:04:07.740Z,99.00
2023-04-06T07:06:40.088Z,98.33
2023-04-06T07:09:09.696Z,95.97
2023-04-06T07:11:38.572Z,94.30
2023-04-06T07:14:09.763Z,94.29
2023-04-06T07:16:44.191Z,94.28
2023-04-06T07:19:13.586Z,92.92
2023-04-06T07:21:43.567Z,93.64
2023-04-06T07:24:15.920Z,92.57
2023-04-06T07:26:45.790Z,92.38
2023-04-06T07:29:14.951Z,91.59
2023-04-06T07:31:43.358Z,89.07
2023-04-06T07:34:11.387Z,87.69
2023-04-06T07:36:41.516Z,86.94
2023-04-06T07:39:10.217Z,86.76
2023-04-06T07:41:39.260Z,86.74
2023-04-06T07:44:08.264Z,87.20
2023-04-06T07:46:38.350Z,87.47
2023-04-06T07:49:07.818Z,87.69
2023-04-06T07:51:41.564Z,87.08
2023-04-06T07:54:09.527Z,86.15
2023-04-06T07:56:37.469Z,86.50
2023-04-06T07:59:06.121Z,86.18
2023-04-06T08:01:33.468Z,84.90
2023-04-06T08:04:04.298Z,84.22
2023-04-06T08:06:33.335Z,83.33
2023-04-06T08:09:01.793Z,83.28
2023-04-06T08:11:34.719Z,82.18
2023-04-06T08:14:03.404Z,80.29
2023-04-06T08:16:32.240Z,79.66
2023-04-06T08:19:01.117Z,79.85
2023-04-06T08:21:30.941Z,79.45
2023-04-06T08:23:59.658Z,79.20
2023-04-06T08:26:27.528Z,81.27
2023-04-06T08:28:55.572Z,81.02
2023-04-06T08:31:23.038Z,80.85
2023-04-06T08:33:51.402Z,81.71
2023-04-06T08:36:24.174Z,81.87
2023-04-06T08:38:53.046Z,81.55
2023-04-06T08:41:22.526Z,81.28
2023-04-06T08:43:57.788Z,83.15
2023-04-06T08:46:33.606Z,81.89
2023-04-06T08:49:04.397Z,80.49
2023-04-06T08:51:35.060Z,80.81
2023-04-06T08:54:03.821Z,79.45
2023-04-06T08:56:31.423Z,79.12
2023-04-06T08:59:01.559Z,78.86
2023-04-06T09:01:31.153Z,79.10
2023-04-06T09:04:02.417Z,78.70
2023-04-06T09:06:33.135Z,77.52
2023-04-06T09:09:01.811Z,75.99
2023-04-06T09:11:31.321Z,75.51
2023-04-06T09:14:02.367Z,75.24
2023-04-06T09:16:45.146Z,74.86
2023-04-06T09:19:14.264Z,77.01
2023-04-06T09:21:43.952Z,77.55
2023-04-06T09:24:12.680Z,77.50
2023-04-06T09:26:49.005Z,79.13
2023-04-06T09:29:28.253Z,78.62
2023-04-06T09:32:08.562Z,80.40
2023-04-06T09:34:36.428Z,81.22
2023-04-06T09:37:18.419Z,82.29
2023-04-06T09:39:47.853Z,84.41
2023-04-06T09:42:27.221Z,85.64
2023-04-06T09:44:56.609Z,86.13
2023-04-06T09:47:26.479Z,87.37
2023-04-06T09:50:01.953Z,91.77
2023-04-06T09:52:35.988Z,92.48
2023-04-06T09:55:09.538Z,93.14
2023-04-06T09:58:03.114Z,92.72
2023-04-06T10:00:34.355Z,94.03
2023-04-06T10:03:21.586Z,95.28
2023-04-06T10:06:00.267Z,95.58
2023-04-06T10:08:32.763Z,95.67
2023-04-06T10:11:02.524Z,95.21
2023-04-06T10:13:30.291Z,93.83
2023-04-06T10:16:04.621Z,94.77
2023-04-06T10:18:32.486Z,96.11
2023-04-06T10:21:10.568Z,97.39
2023-04-06T10:24:00.265Z,97.44
2023-04-06T10:26:28.158Z,99.17
2023-04-06T10:28:56.896Z,99.58
2023-04-06T10:31:28.551Z,99.63
2023-04-06T10:33:58.132Z,100.00
2023-04-06T10:36:30.930Z,100.00
2023-04-06T10:39:03.092Z,100.00
2023-04-06T10:41:42.466Z,100.00
2023-04-06T10:44:25.837Z,100.00
2023-04-06T10:47:05.116Z,100.00
2023-04-06T10:49:32.579Z,100.00
2023-04-06T10:52:00.365Z,100.00
2023-04-06T10:54:30.151Z,100.00
2023-04-06T10:56:58.935Z,100.00
2023-04-06T10:59:27.297Z,100.00
2023-04-06T11:01:58.699Z,100.00
2023-04-06T11:04:28.171Z,100.00
2023-04-06T11:06:56.890Z,100.00
2023-04-06T11:09:27.066Z,100.00
2023-04-06T11:11:55.355Z,100.00
2023-04-06T11:14:23.418Z,100.00
2023-04-06T11:16:52.679Z,100.00
2023-04-06T11:19:24.382Z,100.00
2023-04-06T11:21:52.662Z,100.00
2023-04-06T11:24:26.477Z,99.96
2023-04-06T11:27:00.423Z,99.35
2023-04-06T11:32:26.180Z,96.70
2023-04-06T11:34:54.664Z,93.74
2023-04-06T11:37:22.480Z,90.39
2023-04-06T11:39:52.715Z,88.36
2023-04-06T11:42:28.493Z,87.40
2023-04-06T11:44:58.610Z,85.64
2023-04-06T11:47:34.110Z,84.47
2023-04-06T11:50:13.994Z,83.57
2023-04-06T11:52:43.137Z,82.77
2023-04-06T11:55:19.983Z,82.22
2023-04-06T11:57:48.354Z,82.92
2023-04-06T12:00:17.209Z,82.68
2023-04-06T12:02:49.962Z,82.38
2023-04-06T12:05:18.892Z,82.90
2023-04-06T12:07:47.537Z,82.72
2023-04-06T12:10:16.448Z,82.41
2023-04-06T12:12:45.187Z,82.99
2023-04-06T12:15:13.219Z,83.73
2023-04-06T12:17:42.247Z,85.24
2023-04-06T12:20:24.644Z,87.06
2023-04-06T12:22:54.175Z,87.96
2023-04-06T12:25:22.904Z,88.23
2023-04-06T12:27:51.918Z,88.74
2023-04-06T12:30:20.744Z,88.37
2023-04-06T12:32:51.299Z,89.36
2023-04-06T12:35:19.637Z,89.71
2023-04-06T12:37:47.665Z,88.62
2023-04-06T12:40:17.428Z,86.82
2023-04-06T12:42:46.874Z,84.95
2023-04-06T12:45:15.076Z,82.73
2023-04-06T12:47:42.853Z,81.50
2023-04-06T12:50:13.805Z,80.24
2023-04-06T12:52:41.944Z,80.97
2023-04-06T12:55:10.309Z,79.28
2023-04-06T12:57:39.215Z,79.00
2023-04-06T13:00:09.506Z,78.77
2023-04-06T13:02:38.536Z,79.18
2023-04-06T13:05:06.973Z,78.14
2023-04-06T13:07:35.402Z,77.72
2023-04-06T13:10:03.759Z,77.81
2023-04-06T13:12:34.432Z,77.27
2023-04-06T13:15:02.926Z,76.43
2023-04-06T13:17:34.583Z,75.20
2023-04-06T13:20:03.043Z,74.96
2023-04-06T13:22:36.533Z,74.87
2023-04-06T13:25:05.629Z,75.33
2023-04-06T13:27:36.089Z,76.54
2023-04-06T13:30:06.799Z,77.93
2023-04-06T13:32:36.260Z,79.83
2023-04-06T13:35:09.028Z,81.81
2023-04-06T13:37:37.564Z,83.26
2023-04-06T13:40:09.533Z,84.63
2023-04-06T13:42:39.798Z,85.68
2023-04-06T13:45:08.485Z,86.08
2023-04-06T13:47:36.658Z,87.26
2023-04-06T13:50:08.372Z,88.21
2023-04-06T13:52:37.875Z,89.07
2023-04-06T13:55:05.998Z,88.61
2023-04-06T13:57:33.854Z,87.99
2023-04-06T14:00:03.003Z,86.93
2023-04-06T14:02:35.398Z,87.29
2023-04-06T14:05:05.351Z,87.69
2023-04-06T14:07:33.314Z,87.95
2023-04-06T14:10:01.902Z,87.32
2023-04-06T14:12:30.738Z,87.17
2023-04-06T14:15:00.131Z,84.80
2023-04-06T14:17:27.613Z,85.48
2023-04-06T14:19:55.796Z,83.85
2023-04-06T14:22:23.664Z,83.76
2023-04-06T14:24:52.097Z,82.91
2023-04-06T14:27:19.950Z,81.31
2023-04-06T14:29:48.104Z,79.19
2023-04-06T14:32:18.858Z,79.30
2023-04-06T14:34:48.027Z,79.34
2023-04-06T14:37:16.448Z,81.19
2023-04-06T14:39:44.347Z,83.15
2023-04-06T14:42:11.848Z,84.08
2023-04-06T14:44:44.744Z,86.14
2023-04-06T14:47:17.363Z,88.52
2023-04-06T14:49:45.756Z,90.61
2023-04-06T14:52:13.556Z,92.32
2023-04-06T14:54:43.110Z,93.55
2023-04-06T14:57:12.981Z,94.71
2023-04-06T14:59:41.459Z,96.03
2023-04-06T15:02:13.385Z,96.81
2023-04-06T15:04:41.875Z,96.79
2023-04-06T15:07:11.625Z,98.01
2023-04-06T15:09:42.649Z,99.49
2023-04-06T15:12:12.696Z,99.72
2023-04-06T15:14:41.877Z,100.00
2023-04-06T15:17:10.297Z,100.00
2023-04-06T15:19:38.563Z,100.00
2023-04-06T15:22:07.020Z,100.00
2023-04-06T15:24:35.887Z,100.00
2023-04-06T15:27:03.789Z,100.00
2023-04-06T15:29:32.755Z,100.00
2023-04-06T15:32:02.512Z,100.00
2023-04-06T15:34:34.768Z,100.00
2023-04-06T15:37:03.534Z,100.00
2023-04-06T15:39:31.359Z,100.00
2023-04-06T15:41:59.518Z,100.00
2023-04-06T15:44:27.987Z,100.00
2023-04-06T15:46:55.564Z,100.00
2023-04-06T15:49:23.547Z,100.00
2023-04-06T15:51:52.835Z,100.00
2023-04-06T15:54:21.871Z,100.00
2023-04-06T15:56:51.636Z,100.00
2023-04-06T15:59:20.380Z,100.00
2023-04-06T16:01:48.145Z,100.00
2023-04-06T16:04:15.780Z,100.00
2023-04-06T16:06:43.742Z,100.00
2023-04-06T16:09:12.138Z,100.00
2023-04-06T16:11:39.634Z,100.00
2023-04-06T16:14:07.888Z,100.00
2023-04-06T16:16:36.150Z,100.00
2023-04-06T16:19:03.979Z,100.00
2023-04-06T16:21:32.339Z,100.00
2023-04-06T16:24:00.207Z,100.00
2023-04-06T16:26:28.297Z,100.00
2023-04-06T16:28:56.090Z,100.00
2023-04-06T16:31:25.641Z,100.00
2023-04-06T16:33:54.676Z,100.00
2023-04-06T16:36:34.823Z,100.00
2023-04-06T16:39:02.714Z,100.00
2023-04-06T16:41:30.374Z,100.00
2023-04-06T16:43:58.357Z,100.00
2023-04-06T16:46:32.319Z,100.00
2023-04-06T16:49:00.401Z,100.00
2023-04-06T16:51:28.493Z,100.00
2023-04-06T16:53:56.053Z,100.00
2023-04-06T16:56:23.392Z,100.00
2023-04-06T16:58:51.375Z,100.00
2023-04-06T17:01:23.332Z,100.00
2023-04-06T17:03:51.427Z,100.00
2023-04-06T17:06:19.333Z,100.00
2023-04-06T17:08:47.784Z,100.00
2023-04-06T17:11:21.760Z,100.00
2023-04-06T17:13:52.792Z,100.00
2023-04-06T17:16:21.452Z,100.00
2023-04-06T17:18:48.658Z,100.00
2023-04-06T17:21:17.407Z,100.00
2023-04-06T17:23:45.047Z,100.00
2023-04-06T17:26:12.376Z,100.00
2023-04-06T17:28:39.898Z,100.00
2023-04-06T17:31:11.799Z,100.00
2023-04-06T17:33:40.298Z,100.00
2023-04-06T17:36:11.115Z,100.00
2023-04-06T17:38:43.625Z,100.00
2023-04-06T17:41:12.866Z,100.00
2023-04-06T17:43:40.796Z,100.00
2023-04-06T17:46:08.161Z,100.00
2023-04-06T17:48:35.487Z,100.00
2023-04-06T17:51:03.270Z,100.00
2023-04-06T17:53:32.825Z,100.00
2023-04-06T17:56:06.499Z,100.00
2023-04-06T17:58:34.121Z,100.00
2023-04-06T18:01:07.399Z,100.00
2023-04-06T18:03:35.335Z,100.00
2023-04-06T18:06:16.442Z,100.00
2023-04-06T18:08:43.987Z,100.00
2023-04-06T18:11:22.033Z,100.00
2023-04-06T18:13:49.773Z,100.00
2023-04-06T18:16:21.758Z,100.00
2023-04-06T18:18:49.576Z,100.00
2023-04-06T18:21:19.666Z,100.00
2023-04-06T18:23:47.057Z,100.00
2023-04-06T18:26:19.330Z,100.00
2023-04-06T18:28:47.251Z,100.00
2023-04-06T18:31:15.055Z,100.00
2023-04-06T18:33:42.634Z,100.00
2023-04-06T18:36:11.621Z,100.00
2023-04-06T18:38:43.704Z,100.00
2023-04-06T18:41:13.148Z,100.00
2023-04-06T18:43:41.338Z,100.00
2023-04-06T18:46:13.760Z,100.00
2023-04-06T18:48:42.587Z,100.00
2023-04-06T18:51:09.917Z,100.00
2023-04-06T18:53:39.706Z,100.00
2023-04-06T18:56:18.761Z,100.00
2023-04-06T18:58:48.670Z,100.00
2023-04-06T19:01:27.857Z,100.00
2023-04-06T19:03:57.110Z,100.00
2023-04-06T19:06:27.460Z,100.00
2023-04-06T19:08:55.270Z,100.00
2023-04-06T19:11:25.474Z,100.00
2023-04-06T19:13:57.905Z,100.00
2023-04-06T19:16:29.489Z,100.00
2023-04-06T19:18:57.052Z,100.00
2023-04-06T19:21:26.466Z,100.00
2023-04-06T19:23:55.622Z,100.00
2023-04-06T19:26:24.466Z,100.00
2023-04-06T19:28:52.302Z,100.00
2023-04-06T19:31:19.762Z,100.00
2023-04-06T19:33:47.819Z,100.00
2023-04-06T19:36:16.381Z,100.00
2023-04-06T19:38:43.931Z,100.00
2023-04-06T19:41:11.423Z,100.00
2023-04-06T19:43:38.953Z,100.00
2023-04-06T19:46:06.535Z,100.00
2023-04-06T19:48:34.188Z,100.00
2023-04-06T19:51:01.653Z,100.00
2023-04-06T19:53:29.498Z,100.00
2023-04-06T19:55:56.791Z,100.00
2023-04-06T19:58:24.084Z,100.00
2023-04-06T20:00:51.552Z,100.00
2023-04-06T20:03:19.205Z,100.00
2023-04-06T20:05:47.150Z,100.00
2023-04-06T20:08:14.756Z,100.00
2023-04-06T20:10:42.180Z,100.00
2023-04-06T20:13:09.474Z,100.00
2023-04-06T20:15:37.138Z,100.00
2023-04-06T20:18:04.438Z,100.00
2023-04-06T20:20:31.645Z,100.00
2023-04-06T20:22:59.071Z,100.00
2023-04-06T20:25:27.010Z,100.00
2023-04-06T20:27:54.394Z,100.00
2023-04-06T20:30:21.749Z,100.00
2023-04-06T20:32:49.114Z,100.00
2023-04-06T20:35:16.743Z,100.00
2023-04-06T20:37:44.148Z,100.00
2023-04-06T20:40:13.075Z,100.00
2023-04-06T20:42:40.828Z,100.00
2023-04-06T20:45:09.025Z,100.00
2023-04-06T20:47:36.554Z,100.00
2023-04-06T20:50:04.188Z,100.00
2023-04-06T20:52:31.518Z,100.00
2023-04-06T20:55:01.479Z,100.00
2023-04-06T20:57:28.951Z,100.00
2023-04-06T20:59:56.401Z,100.00
2023-04-06T21:02:23.962Z,100.00
2023-04-06T21:04:51.501Z,100.00
2023-04-06T21:07:18.967Z,100.00
2023-04-06T21:09:46.608Z,100.00
2023-04-06T21:12:13.603Z,100.00
2023-04-06T21:14:41.542Z,100.00
2023-04-06T21:17:09.193Z,100.00
2023-04-06T21:19:36.894Z,100.00
2023-04-06T21:22:04.153Z,100.00
2023-04-06T21:24:31.226Z,100.00
2023-04-06T21:26:58.683Z,100.00
2023-04-06T21:29:26.155Z,100.00
2023-04-06T21:31:55.848Z,100.00
2023-04-06T21:34:25.384Z,100.00
2023-04-06T21:36:53.155Z,100.00
2023-04-06T21:39:20.652Z,100.00
2023-04-06T21:41:47.796Z,100.00
2023-04-06T21:44:15.138Z,100.00
2023-04-06T21:46:42.603Z,100.00
2023-04-06T21:49:09.909Z,100.00
2023-04-06T21:51:37.264Z,100.00
2023-04-06T21:54:04.513Z,100.00
2023-04-06T21:56:31.914Z,100.00
2023-04-06T21:58:59.168Z,100.00
2023-04-06T22:01:27.906Z,100.00
2023-04-06T22:03:55.871Z,100.00
2023-04-06T22:06:25.961Z,100.00
2023-04-06T22:08:59.731Z,100.00
2023-04-06T22:11:26.894Z,100.00
2023-04-06T22:13:54.364Z,100.00
2023-04-06T22:16:21.759Z,100.00
2023-04-06T22:18:48.964Z,100.00
2023-04-06T22:21:16.390Z,100.00
2023-04-06T22:23:43.536Z,100.00
2023-04-06T22:26:11.950Z,100.00
2023-04-06T22:28:40.621Z,100.00
2023-04-06T22:31:07.776Z,100.00
2023-04-06T22:33:35.199Z,100.00
2023-04-06T22:36:02.801Z,100.00
2023-04-06T22:38:30.119Z,100.00
2023-04-06T22:40:57.376Z,100.00
2023-04-06T22:43:24.707Z,100.00
2023-04-06T22:45:52.156Z,100.00
2023-04-06T22:48:19.817Z,100.00
2023-04-06T22:50:47.213Z,100.00
2023-04-06T22:53:14.577Z,100.00
2023-04-06T22:55:41.918Z,100.00
2023-04-06T22:58:09.394Z,100.00
2023-04-06T23:00:36.693Z,100.00
2023-04-06T23:03:04.055Z,100.00
2023-04-06T23:05:33.019Z,100.00
2023-04-06T23:08:00.287Z,99.97
2023-04-06T23:10:27.810Z,100.00
2023-04-06T23:12:55.269Z,100.00
2023-04-06T23:15:22.906Z,100.00
2023-04-06T23:17:50.729Z,100.00
2023-04-06T23:20:18.234Z,100.00
2023-04-06T23:22:45.915Z,100.00
2023-04-06T23:25:13.048Z,99.96
2023-04-06T23:27:40.577Z,98.96
2023-04-06T23:30:08.539Z,97.66
2023-04-06T23:32:35.974Z,97.72
2023-04-06T23:35:03.784Z,97.78
2023-04-06T23:37:31.342Z,98.38
2023-04-06T23:39:58.592Z,98.52
2023-04-06T23:42:28.899Z,97.67
2023-04-06T23:44:56.749Z,98.55
2023-04-06T23:47:23.996Z,98.67
2023-04-06T23:49:52.824Z,99.04
2023-04-06T23:52:19.970Z,98.91
2023-04-06T23:54:47.269Z,98.66
2023-04-06T23:57:14.469Z,98.68
2023-04-06T23:59:41.775Z,98.79
